gordon.dewis.ca - Random musings from Gordon

Subscribe

It’s raining, so I must have a dragonboat practice this evening

June 12, 2015 @ 16:41 By: gordon Category: Dragonboats, Weather

As you’ve probably noticed if you live in Ottawa, it has been raining all day today. That means the chances are high the I have a dragonboat practice this evening (which I do) and it looks like it’s going to be (another) wet one, at least for the first part of the practice:

TAF AMD CYOW 121851Z 1218/1318 VRB03KT 6SM -RA BR OVC030
TEMPO 1218/1220 3SM -RA BR BKN020 OVC050 PROB30 1218/1220 2SM TSRA BR BKN008 OVC015CB
FM122000 18005KT 6SM -RA BR SCT006 OVC012
TEMPO 1220/1302 2SM RA BR BKN006 OVC012
BECMG 1222/1224 06006KT
FM130300 05006KT P6SM BKN012 OVC090
FM130500 33005KT 3SM BR FEW015 PROB30 1305/1312 1/4SM FG VV001
FM131200 31010KT P6SM FEW025
RMK NXT FCST BY 122100Z

Thank goodness for GoreTex™!

Trackbacks/Pingbacks

  1. gordon.dewis.ca | Perfect weather for dragonboating (June 19, 2015 @ 14:58)

Leave a Reply

CAPTCHA
*